createdAt,value
2022-11-15T00:00:05.257Z,1000
2022-11-15T00:03:05.178Z,1000
2022-11-15T00:06:05.230Z,1000
2022-11-15T00:09:05.225Z,1000
2022-11-15T00:12:05.146Z,1000
2022-11-15T00:15:05.101Z,1000
2022-11-15T00:18:05.197Z,1000
2022-11-15T00:21:05.135Z,1000
2022-11-15T00:24:05.112Z,1000
2022-11-15T00:27:08.127Z,1000
2022-11-15T00:30:05.208Z,999
2022-11-15T00:33:05.127Z,999
2022-11-15T00:36:05.143Z,999
2022-11-15T00:39:05.187Z,999
2022-11-15T00:42:05.221Z,999
2022-11-15T00:45:05.162Z,1000
2022-11-15T00:48:05.138Z,1000
2022-11-15T00:51:05.210Z,1000
2022-11-15T00:54:05.127Z,1000
2022-11-15T00:57:05.179Z,1000
2022-11-15T01:00:05.197Z,1000
2022-11-15T01:03:05.141Z,1000
2022-11-15T01:06:05.823Z,1000
2022-11-15T01:09:05.239Z,1000
2022-11-15T01:12:05.169Z,1000
2022-11-15T01:15:05.213Z,1000
2022-11-15T01:18:05.136Z,1000
2022-11-15T01:21:05.152Z,1000
2022-11-15T01:24:05.139Z,1000
2022-11-15T01:27:05.229Z,1000
2022-11-15T01:30:05.185Z,1000
2022-11-15T01:33:05.153Z,1000
2022-11-15T01:36:05.203Z,1000
2022-11-15T01:39:05.120Z,1000
2022-11-15T01:42:05.168Z,1000
2022-11-15T01:45:05.181Z,999
2022-11-15T01:48:05.171Z,999
2022-11-15T01:51:05.116Z,999
2022-11-15T01:54:05.148Z,999
2022-11-15T01:57:05.133Z,999
2022-11-15T02:00:05.136Z,999
2022-11-15T02:03:05.113Z,999
2022-11-15T02:06:05.194Z,999
2022-11-15T02:09:05.124Z,999
2022-11-15T02:12:05.154Z,999
2022-11-15T02:15:05.128Z,999
2022-11-15T02:18:05.214Z,999
2022-11-15T02:21:05.130Z,999
2022-11-15T02:24:05.186Z,999
2022-11-15T02:27:05.122Z,999
2022-11-15T02:30:05.158Z,999
2022-11-15T02:33:05.175Z,999
2022-11-15T02:36:05.144Z,999
2022-11-15T02:39:05.152Z,999
2022-11-15T02:42:05.141Z,999
2022-11-15T02:45:05.167Z,999
2022-11-15T02:48:05.164Z,999
2022-11-15T02:51:05.156Z,999
2022-11-15T02:54:05.096Z,999
2022-11-15T02:57:05.104Z,999
2022-11-15T03:00:05.156Z,999
2022-11-15T03:03:05.124Z,999
2022-11-15T03:06:05.129Z,999
2022-11-15T03:09:05.152Z,999
2022-11-15T03:12:05.218Z,999
2022-11-15T03:15:05.338Z,999
2022-11-15T03:18:05.149Z,999
2022-11-15T03:21:05.154Z,999
2022-11-15T03:24:05.146Z,999
2022-11-15T03:27:05.162Z,999
2022-11-15T03:30:05.206Z,999
2022-11-15T03:33:05.169Z,999
2022-11-15T03:36:05.154Z,998
2022-11-15T03:39:05.154Z,998
2022-11-15T03:42:05.147Z,998
2022-11-15T03:45:05.146Z,998
2022-11-15T03:48:05.100Z,998
2022-11-15T03:51:05.133Z,998
2022-11-15T03:54:05.164Z,998
2022-11-15T03:57:05.180Z,998
2022-11-15T04:00:05.149Z,998
2022-11-15T04:03:05.175Z,998
2022-11-15T04:06:05.183Z,998
2022-11-15T04:09:05.081Z,998
2022-11-15T04:12:05.193Z,998
2022-11-15T04:15:05.091Z,998
2022-11-15T04:18:05.193Z,999
2022-11-15T04:21:05.138Z,999
2022-11-15T04:24:05.154Z,999
2022-11-15T04:27:05.170Z,999
2022-11-15T04:30:05.229Z,999
2022-11-15T04:33:05.125Z,999
2022-11-15T04:36:05.132Z,999
2022-11-15T04:39:05.111Z,999
2022-11-15T04:42:05.149Z,999
2022-11-15T04:45:05.183Z,999
2022-11-15T04:48:05.139Z,999
2022-11-15T04:51:05.117Z,999
2022-11-15T04:54:05.121Z,999
2022-11-15T04:57:05.113Z,999
2022-11-15T05:00:05.276Z,999
2022-11-15T05:03:05.088Z,999
2022-11-15T05:06:05.226Z,999
2022-11-15T05:09:05.117Z,999
2022-11-15T05:12:05.176Z,999
2022-11-15T05:15:05.129Z,999
2022-11-15T05:18:05.127Z,999
2022-11-15T05:21:05.146Z,999
2022-11-15T05:24:05.121Z,999
2022-11-15T05:27:05.060Z,999
2022-11-15T05:30:05.223Z,999
2022-11-15T05:33:05.220Z,999
2022-11-15T05:36:05.119Z,999
2022-11-15T05:39:05.197Z,999
2022-11-15T05:42:05.151Z,999
2022-11-15T05:45:05.098Z,999
2022-11-15T05:48:05.205Z,999
2022-11-15T05:51:05.115Z,999
2022-11-15T05:54:05.095Z,999
2022-11-15T05:57:05.122Z,999
2022-11-15T06:00:05.305Z,999
2022-11-15T06:03:05.109Z,999
2022-11-15T06:06:05.119Z,999
2022-11-15T06:09:05.235Z,999
2022-11-15T06:12:05.136Z,999
2022-11-15T06:15:05.170Z,999
2022-11-15T06:18:05.140Z,999
2022-11-15T06:21:05.139Z,999
2022-11-15T06:24:05.166Z,999
2022-11-15T06:27:05.125Z,999
2022-11-15T06:30:05.449Z,999
2022-11-15T06:33:05.171Z,999
2022-11-15T06:36:05.185Z,999
2022-11-15T06:42:05.277Z,999
2022-11-15T06:45:05.275Z,999
2022-11-15T06:48:05.688Z,999
2022-11-15T06:51:05.216Z,999
2022-11-15T06:54:05.322Z,999
2022-11-15T06:57:05.157Z,999
2022-11-15T07:00:05.317Z,999
2022-11-15T07:03:05.171Z,999
2022-11-15T07:06:12.307Z,999
2022-11-15T07:09:05.209Z,1000
2022-11-15T07:12:12.494Z,1000
2022-11-15T07:15:05.204Z,1000
2022-11-15T07:18:05.237Z,1000
2022-11-15T07:21:05.111Z,1000
2022-11-15T07:24:05.175Z,1000
2022-11-15T07:27:05.566Z,1000
2022-11-15T07:30:05.300Z,1000
2022-11-15T07:33:05.165Z,1000
2022-11-15T07:36:05.254Z,1000
2022-11-15T07:39:05.134Z,999
2022-11-15T07:42:05.192Z,999
2022-11-15T07:45:05.267Z,999
2022-11-15T07:48:05.223Z,999
2022-11-15T07:51:07.677Z,999
2022-11-15T07:54:05.250Z,999
2022-11-15T07:57:12.325Z,999
2022-11-15T08:00:05.279Z,999
2022-11-15T08:03:05.325Z,1000
2022-11-15T08:06:05.212Z,1000
2022-11-15T08:09:05.182Z,1000
2022-11-15T08:12:05.271Z,999
2022-11-15T08:15:05.242Z,999
2022-11-15T08:18:05.178Z,999
2022-11-15T08:21:05.206Z,999
2022-11-15T08:24:05.204Z,999
2022-11-15T08:27:05.380Z,999
2022-11-15T08:30:05.409Z,999
2022-11-15T08:33:05.152Z,999
2022-11-15T08:36:05.156Z,999
2022-11-15T08:39:05.213Z,999
2022-11-15T08:45:05.217Z,999
2022-11-15T08:48:05.370Z,999
2022-11-15T08:51:05.200Z,999
2022-11-15T08:54:05.251Z,999
2022-11-15T08:57:05.183Z,999
2022-11-15T09:00:05.323Z,999
2022-11-15T09:03:05.144Z,999
2022-11-15T09:06:05.301Z,999
2022-11-15T09:09:05.476Z,999
2022-11-15T09:12:07.539Z,999
2022-11-15T09:15:05.265Z,999
2022-11-15T09:21:05.233Z,999
2022-11-15T09:24:05.267Z,999
2022-11-15T09:27:05.294Z,999
2022-11-15T09:30:05.307Z,999
2022-11-15T09:33:05.222Z,999
2022-11-15T09:36:05.263Z,999
2022-11-15T09:39:05.183Z,999
2022-11-15T09:42:05.271Z,999
2022-11-15T09:45:05.150Z,999
2022-11-15T09:48:05.287Z,999
2022-11-15T09:51:05.223Z,999
2022-11-15T09:54:59.056Z,999
2022-11-15T09:57:05.531Z,999
2022-11-15T10:00:50.576Z,999
2022-11-15T10:03:05.219Z,999
2022-11-15T10:06:05.236Z,998
2022-11-15T10:09:05.217Z,998
2022-11-15T10:12:05.170Z,998
2022-11-15T10:15:05.201Z,998
2022-11-15T10:18:05.233Z,998
2022-11-15T10:21:05.205Z,998
2022-11-15T10:24:05.340Z,998
2022-11-15T10:27:05.195Z,998
2022-11-15T10:30:05.294Z,998
2022-11-15T10:33:05.268Z,998
2022-11-15T10:36:05.193Z,998
2022-11-15T10:39:05.174Z,998
2022-11-15T10:42:19.851Z,998
2022-11-15T10:45:05.235Z,998
2022-11-15T10:48:05.177Z,998
2022-11-15T10:51:05.185Z,998
2022-11-15T10:54:11.476Z,998
2022-11-15T10:57:05.192Z,998
2022-11-15T11:00:05.267Z,998
2022-11-15T11:03:05.188Z,998
2022-11-15T11:06:05.207Z,998
2022-11-15T11:09:05.233Z,998
2022-11-15T11:12:05.200Z,998
2022-11-15T11:15:05.201Z,998
2022-11-15T11:18:05.205Z,998
2022-11-15T11:21:05.216Z,998
2022-11-15T11:24:05.220Z,998
2022-11-15T11:27:05.193Z,998
2022-11-15T11:30:05.332Z,998
2022-11-15T11:33:05.162Z,998
2022-11-15T11:36:05.266Z,998
2022-11-15T11:39:05.189Z,998
2022-11-15T11:42:05.199Z,998
2022-11-15T11:45:05.269Z,998
2022-11-15T11:48:05.248Z,998
2022-11-15T11:51:05.210Z,998
2022-11-15T11:54:05.263Z,998
2022-11-15T11:57:05.212Z,998
2022-11-15T12:00:05.329Z,998
2022-11-15T12:03:06.090Z,998
2022-11-15T12:06:05.233Z,998
2022-11-15T12:09:05.171Z,998
2022-11-15T12:12:05.188Z,998
2022-11-15T12:15:05.210Z,998
2022-11-15T12:18:05.242Z,998
2022-11-15T12:21:05.198Z,997
2022-11-15T12:24:05.308Z,997
2022-11-15T12:27:05.132Z,997
2022-11-15T12:30:05.273Z,997
2022-11-15T12:33:05.180Z,997
2022-11-15T12:36:05.217Z,997
2022-11-15T12:39:05.243Z,997
2022-11-15T12:42:05.215Z,997
2022-11-15T12:45:05.265Z,997
2022-11-15T12:48:05.183Z,997
2022-11-15T12:51:05.307Z,997
2022-11-15T12:54:05.231Z,997
2022-11-15T12:57:05.222Z,997
2022-11-15T13:00:05.320Z,997
2022-11-15T13:03:05.279Z,997
2022-11-15T13:06:05.177Z,997
2022-11-15T13:09:05.209Z,997
2022-11-15T13:12:05.223Z,997
2022-11-15T13:15:05.254Z,997
2022-11-15T13:18:05.194Z,997
2022-11-15T13:21:07.581Z,997
2022-11-15T13:24:05.915Z,997
2022-11-15T13:27:05.232Z,997
2022-11-15T13:30:05.317Z,997
2022-11-15T13:33:05.292Z,997
2022-11-15T13:36:05.176Z,997
2022-11-15T13:39:05.484Z,997
2022-11-15T13:42:05.266Z,997
2022-11-15T13:45:05.231Z,997
2022-11-15T13:48:05.299Z,997
2022-11-15T13:51:05.305Z,997
2022-11-15T13:54:05.208Z,996
2022-11-15T13:57:05.196Z,996
2022-11-15T14:00:05.414Z,996
2022-11-15T14:03:05.182Z,996
2022-11-15T14:06:05.217Z,996
2022-11-15T14:09:05.382Z,996
2022-11-15T14:12:05.223Z,996
2022-11-15T14:15:05.229Z,996
2022-11-15T14:18:05.172Z,996
2022-11-15T14:21:05.162Z,996
2022-11-15T14:24:05.511Z,996
2022-11-15T14:27:05.207Z,996
2022-11-15T14:30:05.269Z,996
2022-11-15T14:33:05.145Z,996
2022-11-15T14:36:06.100Z,996
2022-11-15T14:39:05.201Z,996
2022-11-15T14:42:05.139Z,997
2022-11-15T14:45:05.231Z,996
2022-11-15T14:48:05.221Z,996
2022-11-15T14:51:05.184Z,996
2022-11-15T14:54:05.211Z,996
2022-11-15T14:57:05.236Z,996
2022-11-15T15:00:05.324Z,996
2022-11-15T15:03:05.257Z,996
2022-11-15T15:06:05.162Z,996
2022-11-15T15:09:05.173Z,996
2022-11-15T15:12:11.027Z,996
2022-11-15T15:15:05.223Z,996
2022-11-15T15:18:05.158Z,996
2022-11-15T15:21:05.309Z,996
2022-11-15T15:24:05.244Z,996
2022-11-15T15:27:05.175Z,996
2022-11-15T15:30:05.306Z,996
2022-11-15T15:33:05.139Z,996
2022-11-15T15:36:05.148Z,996
2022-11-15T15:39:05.149Z,996
2022-11-15T15:42:05.122Z,996
2022-11-15T15:45:05.259Z,996
2022-11-15T15:48:05.677Z,996
2022-11-15T15:51:18.613Z,996
2022-11-15T15:54:05.117Z,996
2022-11-15T15:57:05.118Z,995
2022-11-15T16:00:05.402Z,995
2022-11-15T16:03:05.134Z,995
2022-11-15T16:06:05.194Z,995
2022-11-15T16:09:21.915Z,995
2022-11-15T16:12:05.411Z,995
2022-11-15T16:15:05.119Z,995
2022-11-15T16:18:05.205Z,995
2022-11-15T16:21:05.153Z,995
2022-11-15T16:24:05.433Z,995
2022-11-15T16:27:05.163Z,995
2022-11-15T16:30:05.194Z,996
2022-11-15T16:33:05.288Z,995
2022-11-15T16:36:05.214Z,995
2022-11-15T16:39:05.178Z,995
2022-11-15T16:42:05.378Z,995
2022-11-15T16:45:05.176Z,995
2022-11-15T16:48:05.113Z,995
2022-11-15T16:51:05.182Z,995
2022-11-15T16:54:05.114Z,995
2022-11-15T16:57:05.236Z,995
2022-11-15T17:00:05.246Z,995
2022-11-15T17:03:05.130Z,995
2022-11-15T17:06:05.130Z,995
2022-11-15T17:09:05.167Z,995
2022-11-15T17:12:05.176Z,995
2022-11-15T17:15:05.127Z,995
2022-11-15T17:18:05.187Z,995
2022-11-15T17:21:05.499Z,995
2022-11-15T17:24:05.165Z,995
2022-11-15T17:27:05.130Z,995
2022-11-15T17:30:05.198Z,995
2022-11-15T17:33:05.122Z,995
2022-11-15T17:36:05.132Z,995
2022-11-15T17:39:05.229Z,995
2022-11-15T17:42:05.119Z,995
2022-11-15T17:45:14.275Z,995
2022-11-15T17:48:05.175Z,995
2022-11-15T17:51:05.113Z,995
2022-11-15T17:54:05.199Z,995
2022-11-15T17:57:05.167Z,995
2022-11-15T18:00:05.315Z,995
2022-11-15T18:03:05.142Z,995
2022-11-15T18:06:05.194Z,995
2022-11-15T18:09:05.258Z,995
2022-11-15T18:12:05.132Z,995
2022-11-15T18:15:05.240Z,995
2022-11-15T18:18:05.676Z,995
2022-11-15T18:21:05.171Z,995
2022-11-15T18:24:05.144Z,995
2022-11-15T18:27:05.172Z,995
2022-11-15T18:30:05.285Z,995
2022-11-15T18:33:05.164Z,995
2022-11-15T18:36:05.142Z,995
2022-11-15T18:39:05.206Z,995
2022-11-15T18:42:05.179Z,995
2022-11-15T18:45:05.212Z,995
2022-11-15T18:48:05.149Z,995
2022-11-15T18:51:10.060Z,994
2022-11-15T18:54:05.165Z,994
2022-11-15T18:57:05.143Z,994
2022-11-15T19:00:05.374Z,994
2022-11-15T19:03:05.150Z,994
2022-11-15T19:06:05.225Z,994
2022-11-15T19:09:05.096Z,994
2022-11-15T19:12:05.201Z,994
2022-11-15T19:15:11.075Z,994
2022-11-15T19:18:05.144Z,995
2022-11-15T19:21:05.137Z,995
2022-11-15T19:24:05.155Z,994
2022-11-15T19:27:05.107Z,994
2022-11-15T19:30:05.203Z,994
2022-11-15T19:33:05.078Z,994
2022-11-15T19:36:05.198Z,994
2022-11-15T19:39:05.231Z,994
2022-11-15T19:42:05.133Z,994
2022-11-15T19:45:05.164Z,994
2022-11-15T19:48:05.215Z,994
2022-11-15T19:51:05.161Z,994
2022-11-15T19:54:05.198Z,994
2022-11-15T19:57:05.120Z,994
2022-11-15T20:00:11.951Z,994
2022-11-15T20:03:05.151Z,994
2022-11-15T20:06:05.182Z,994
2022-11-15T20:09:05.178Z,994
2022-11-15T20:12:05.179Z,994
2022-11-15T20:15:05.186Z,994
2022-11-15T20:18:05.196Z,994
2022-11-15T20:21:05.140Z,994
2022-11-15T20:24:05.212Z,994
2022-11-15T20:27:05.141Z,994
2022-11-15T20:30:05.242Z,994
2022-11-15T20:33:05.099Z,994
2022-11-15T20:36:05.146Z,994
2022-11-15T20:39:05.148Z,994
2022-11-15T20:42:05.162Z,994
2022-11-15T20:45:05.164Z,994
2022-11-15T20:48:05.161Z,994
2022-11-15T20:51:05.157Z,994
2022-11-15T20:54:05.298Z,994
2022-11-15T20:57:05.159Z,994
2022-11-15T21:00:10.492Z,994
2022-11-15T21:03:05.185Z,994
2022-11-15T21:06:05.158Z,994
2022-11-15T21:09:05.179Z,994
2022-11-15T21:12:05.308Z,994
2022-11-15T21:15:05.218Z,994
2022-11-15T21:18:05.176Z,994
2022-11-15T21:21:05.452Z,994
2022-11-15T21:24:05.178Z,994
2022-11-15T21:27:05.158Z,994
2022-11-15T21:30:05.194Z,994
2022-11-15T21:33:05.223Z,994
2022-11-15T21:36:05.206Z,994
2022-11-15T21:39:05.427Z,994
2022-11-15T21:42:05.180Z,994
2022-11-15T21:45:05.350Z,994
2022-11-15T21:48:05.223Z,993
2022-11-15T21:51:05.220Z,993
2022-11-15T21:54:05.453Z,993
2022-11-15T21:57:05.254Z,993
2022-11-15T22:00:05.185Z,993
2022-11-15T22:03:05.342Z,994
2022-11-15T22:06:05.161Z,994
2022-11-15T22:09:05.162Z,994
2022-11-15T22:12:05.152Z,994
2022-11-15T22:15:05.135Z,994
2022-11-15T22:18:05.174Z,994
2022-11-15T22:21:05.257Z,993
2022-11-15T22:24:05.218Z,993
2022-11-15T22:27:05.138Z,993
2022-11-15T22:30:05.215Z,993
2022-11-15T22:33:05.177Z,993
2022-11-15T22:36:05.148Z,993
2022-11-15T22:39:05.153Z,993
2022-11-15T22:42:05.106Z,993
2022-11-15T22:45:05.146Z,993
2022-11-15T22:48:05.233Z,993
2022-11-15T22:51:05.166Z,993
2022-11-15T22:54:05.228Z,993
2022-11-15T22:57:05.149Z,993
2022-11-15T23:00:05.530Z,993
2022-11-15T23:03:05.198Z,992
2022-11-15T23:06:05.147Z,992
2022-11-15T23:09:05.153Z,992
2022-11-15T23:12:05.172Z,992
2022-11-15T23:15:05.171Z,992
2022-11-15T23:18:05.313Z,992
2022-11-15T23:21:05.263Z,992
2022-11-15T23:24:05.276Z,992
2022-11-15T23:27:05.124Z,992
2022-11-15T23:30:05.212Z,992
2022-11-15T23:33:05.164Z,992
2022-11-15T23:36:05.148Z,992
2022-11-15T23:39:05.106Z,992
2022-11-15T23:42:13.679Z,992
2022-11-15T23:45:05.133Z,992
2022-11-15T23:48:06.320Z,992
2022-11-15T23:51:05.144Z,992
2022-11-15T23:54:05.191Z,992
2022-11-15T23:57:05.279Z,992
